Latest Coastal Weather Observations for Troughton Island

IDW60701

Issued at 9:52 pm WST Tuesday 4 August 2015 (issued every 10 minutes, with the page automatically refreshed every 10 minutes)

About coastal observations | Map of coastal stations | Coastal observations for WA | Marine services | Other Formats
Station Details ID: 001007 Name: TROUGHTON ISLAND Lat: -13.75 Lon: 126.15 Height: 6.0 m
Data from the previous 72 hours. | See also: Recent months at Troughton Island
Date/Time
WST
Temp

°C
Wind Pressure Rain
since 9am
mm
Weather Cloud Vis
km
Sea
Height
m
Swell
Dir
 
Speed
knots
Gust
knots
hPa Trend Height
m
Period
s
Dir
04/09:32pm 25.1 E 13 15 1015.9 - 0.0 - - - - - - -
04/09:02pm 25.0 E 11 13 1015.6 - 0.0 - - - - - - -
04/09:00pm 25.0 E 11 - 1015.5 - 0.0 - - - - - - -
04/08:32pm 25.0 E 13 15 1015.4 - 0.0 - - - - - - -
04/08:02pm 25.1 ENE 15 18 1015.2 - 0.0 - - - - - - -
04/07:32pm 25.1 ENE 16 19 1015.0 - 0.0 - - - - - - -
04/07:02pm 25.3 ENE 17 19 1014.7 - 0.0 - - - - - - -
04/06:32pm 25.2 ENE 16 20 1014.3 - 0.0 - - - - - - -
04/06:02pm 25.1 ENE 17 19 1014.0 - 0.0 - - - - - - -
04/06:00pm 25.1 ENE 17 - 1013.9 - - - - - - - - -
04/05:32pm 25.3 ENE 17 21 1013.8 - 0.0 - - - - - - -
04/05:02pm 25.6 ENE 17 21 1013.5 - 0.0 - - - - - - -
04/04:32pm 25.9 ENE 18 22 1013.5 - 0.0 - - - - - - -
04/04:02pm 26.1 ENE 18 23 1013.5 - 0.0 - - - - - - -
04/03:02pm 26.7 ENE 19 23 1013.7 - 0.0 - - - - - - -
04/03:00pm 26.8 ENE 19 - 1013.6 - 0.0 - - - - - - -
04/02:32pm 27.1 ENE 19 23 1013.8 - 0.0 - - - - - - -
04/02:02pm 27.4 ENE 18 22 1014.2 - 0.0 - - - - - - -
04/01:32pm 27.3 ENE 19 23 1014.6 - 0.0 - - - - - - -
04/01:02pm 27.5 ENE 19 23 1015.1 - 0.0 - - - - - - -
04/12:32pm 27.4 ENE 20 24 1015.6 - 0.0 - - - - - - -
04/12:02pm 27.4 E 17 22 1016.1 - 0.0 - - - - - - -
04/12:00pm 27.6 E 17 - 1016.0 - - - - - - - - -
04/11:32am 28.1 E 15 18 1016.5 - 0.0 - - - - - - -
04/11:02am 28.2 E 15 19 1017.0 - 0.0 - - - - - - -
04/10:32am 27.9 E 15 19 1017.4 - 0.0 - - - - - - -
04/10:02am 27.5 E 15 20 1017.5 - 0.0 - - - - - - -
04/09:32am 27.1 E 18 25 1017.9 - 0.0 - - - - - - -
04/09:02am 26.8 E 15 20 1018.1 - 0.0 - - - - - - -
04/09:00am 26.8 E 16 - 1018.0 - 0.0 - - - - - - -
04/08:32am 26.5 E 18 22 1017.9 - 0.0 - - - - - - -
04/08:02am 26.3 ESE 14 18 1017.7 - 0.0 - - - - - - -
04/07:32am 26.1 SE 13 16 1017.5 - 0.0 - - - - - - -
04/07:02am 25.0 SE 10 14 1017.3 - 0.0 - - - - - - -
04/06:32am 23.8 SSE 9 11 1017.0 - 0.0 - - - - - - -
04/06:02am 23.3 SSE 11 13 1016.5 - 0.0 - - - - - - -
04/06:00am 23.4 SSE 11 - 1016.4 - - - - - - - - -
04/05:32am 23.1 SSE 10 12 1016.1 - 0.0 - - - - - - -
04/05:02am 23.1 SSE 10 12 1015.7 - 0.0 - - - - - - -
04/04:32am 22.9 SE 8 9 1015.4 - 0.0 - - - - - - -
04/04:02am 23.1 SSE 9 11 1015.3 - 0.0 - - - - - - -
04/03:32am 22.8 S 7 7 1014.9 - 0.0 - - - - - - -
04/03:02am 22.8 S 7 8 1015.2 - 0.0 - - - - - - -
04/03:00am 22.6 S 7 - 1015.1 - 0.0 - - - - - - -
04/02:32am 22.8 S 6 8 1015.2 - 0.0 - - - - - - -
04/02:02am 23.1 S 7 8 1015.3 - 0.0 - - - - - - -
04/01:32am 23.6 S 7 8 1015.5 - 0.0 - - - - - - -
04/01:02am 23.6 S 7 9 1015.7 - 0.0 - - - - - - -
04/12:32am 23.5 SSW 6 8 1015.9 - 0.0 - - - - - - -
04/12:02am 23.3 SSW 5 6 1015.9 - 0.0 - - - - - - -
04/12:00am 23.2 SSW 5 - 1015.8 - - - - - - - - -
 
Date/Time
WST
Temp

°C
Wind Pressure Rain
since 9am
mm
Weather Cloud Vis
km
Sea
Height
m
Swell
Dir
 
Speed
knots
Gust
knots
hPa Trend Height
m
Period
s
Dir
03/11:32pm 23.2 SSW 4 5 1016.0 - 0.0 - - - - - - -
03/11:02pm 23.2 SW 4 5 1016.2 - 0.0 - - - - - - -
03/10:32pm 23.3 WSW 5 5 1016.3 - 0.0 - - - - - - -
03/10:02pm 23.4 SW 6 7 1016.7 - 0.0 - - - - - - -
03/09:32pm 23.1 SW 5 5 1016.6 - 0.0 - - - - - - -
03/09:02pm 23.4 NNE 4 5 1016.4 - 0.0 - - - - - - -
03/09:00pm 23.3 NNE 4 - 1016.3 - 0.0 - - - - - - -
03/08:32pm 23.5 NNE 4 5 1016.3 - 0.0 - - - - - - -
03/08:02pm 23.6 NNE 5 5 1016.2 - 0.0 - - - - - - -
03/07:32pm 23.9 NNE 5 6 1016.1 - 0.0 - - - - - - -
03/07:02pm 24.2 NE 7 8 1015.7 - 0.0 - - - - - - -
03/06:32pm 24.7 NNE 9 12 1015.1 - 0.0 - - - - - - -
03/06:02pm 24.9 NNE 9 13 1015.0 - 0.0 - - - - - - -
03/06:00pm 24.9 NNE 9 - 1014.9 - - - - - - - - -
03/05:32pm 25.0 NNE 10 13 1014.7 - 0.0 - - - - - - -
03/05:02pm 25.4 N 9 11 1014.7 - 0.0 - - - - - - -
03/04:32pm 25.7 N 8 10 1014.7 - 0.0 - - - - - - -
03/04:02pm 26.6 NNE 7 9 1014.6 - 0.0 - - - - - - -
03/03:32pm 26.8 NNE 7 8 1014.5 - 0.0 - - - - - - -
03/03:02pm 26.7 NE 6 7 1014.5 - 0.0 - - - - - - -
03/03:00pm 26.9 NE 6 - 1014.4 - 0.0 - - - - - - -
03/02:32pm 27.4 ENE 6 7 1014.7 - 0.0 - - - - - - -
03/02:02pm 27.0 ENE 6 7 1014.9 - 0.0 - - - - - - -
03/01:02pm 27.1 ENE 7 9 1015.3 - 0.0 - - - - - - -
03/12:32pm 27.0 ENE 7 8 1015.7 - 0.0 - - - - - - -
03/12:02pm 26.8 ENE 8 9 1016.1 - 0.0 - - - - - - -
03/12:00pm 26.8 ENE 8 - 1016.1 - - - - - - - - -
03/11:32am 26.7 ENE 8 10 1016.4 - 0.0 - - - - - - -
03/11:02am 26.6 ENE 9 11 1016.9 - 0.0 - - - - - - -
03/10:32am 27.1 ENE 10 13 1017.1 - 0.0 - - - - - - -
03/10:02am 26.4 NE 7 9 1017.2 - 0.0 - - - - - - -
03/09:32am 26.5 ENE 8 9 1017.5 - 0.0 - - - - - - -
03/09:02am 25.6 ENE 9 11 1017.6 - 0.0 - - - - - - -
03/09:00am 25.6 E 9 - 1017.5 - 0.0 - - - - - - -
03/08:32am 25.8 E 9 11 1017.5 - 0.0 - - - - - - -
03/08:02am 25.5 E 8 10 1017.0 - 0.0 - - - - - - -
03/07:32am 24.8 ESE 7 8 1016.5 - 0.0 - - - - - - -
03/07:02am 23.7 ESE 6 7 1016.1 - 0.0 - - - - - - -
03/06:32am 22.6 SE 6 7 1015.8 - 0.0 - - - - - - -
03/06:02am 21.5 SE 6 6 1015.6 - 0.0 - - - - - - -
03/06:00am 21.5 SE 6 - 1015.5 - - - - - - - - -
03/05:32am 21.9 SE 6 6 1015.5 - 0.0 - - - - - - -
03/05:02am 21.8 SE 5 6 1015.4 - 0.0 - - - - - - -
03/04:32am 21.5 SSE 6 6 1015.2 - 0.0 - - - - - - -
03/04:02am 21.6 SSE 5 5 1014.9 - 0.0 - - - - - - -
03/03:32am 21.7 SSE 5 5 1014.9 - 0.0 - - - - - - -
03/03:02am 22.0 S 4 5 1015.1 - 0.0 - - - - - - -
03/03:00am 21.8 S 4 - 1015.1 - 0.0 - - - - - - -
03/02:32am 22.0 S 4 5 1015.1 - 0.0 - - - - - - -
03/02:02am 21.9 S 5 6 1015.4 - 0.0 - - - - - - -
03/01:32am 21.9 S 5 7 1015.6 - 0.0 - - - - - - -
03/01:02am 22.4 S 4 4 1015.6 - 0.0 - - - - - - -
03/12:32am 22.8 CALM 0 0 1015.8 - 0.0 - - - - - - -
03/12:02am 22.5 SW 1 3 1016.1 - 0.0 - - - - - - -
03/12:00am 22.5 SW 2 - 1016.0 - - - - - - - - -
 
Date/Time
WST
Temp

°C
Wind Pressure Rain
since 9am
mm
Weather Cloud Vis
km
Sea
Height
m
Swell
Dir
 
Speed
knots
Gust
knots
hPa Trend Height
m
Period
s
Dir
02/11:32pm 22.5 SW 4 5 1016.5 - 0.0 - - - - - - -
02/11:02pm 22.2 NW 4 4 1016.7 - 0.0 - - - - - - -
02/10:32pm 22.7 NNW 2 4 1016.7 - 0.0 - - - - - - -
02/10:02pm 22.7 CALM 0 0 1016.9 - 0.0 - - - - - - -
02/09:32pm 22.8 CALM 0 0 1016.9 - 0.0 - - - - - - -
02/09:02pm 23.4 NNW 3 4 1016.8 - 0.0 - - - - - - -
02/09:00pm 23.5 NNW 3 - 1016.7 - 0.0 - - - - - - -
02/08:32pm 23.2 NNW 4 4 1016.5 - 0.0 - - - - - - -
02/08:02pm 23.4 N 4 5 1016.2 - 0.0 - - - - - - -
02/07:32pm 23.9 N 4 5 1015.9 - 0.0 - - - - - - -
02/07:02pm 24.2 N 4 5 1015.5 - 0.0 - - - - - - -
02/06:32pm 24.3 N 4 5 1015.3 - 0.0 - - - - - - -
02/05:32pm 24.8 N 4 5 1014.8 - 0.0 - - - - - - -
02/05:02pm 25.5 NNW 5 6 1014.6 - 0.0 - - - - - - -
02/04:32pm 25.6 N 6 7 1014.3 - 0.0 - - - - - - -
02/04:02pm 25.9 N 7 9 1014.1 - 0.0 - - - - - - -
02/03:32pm 27.3 N 6 8 1014.0 - 0.0 - - - - - - -
02/03:02pm 27.6 NNW 7 9 1014.0 - 0.0 - - - - - - -
02/03:00pm 27.6 NNW 7 - 1013.9 - 0.0 - - - - - - -
02/02:32pm 27.1 NW 7 9 1013.9 - 0.0 - - - - - - -
02/02:02pm 27.3 NW 7 8 1014.2 - 0.0 - - - - - - -
02/01:32pm 27.5 WNW 6 7 1014.7 - 0.0 - - - - - - -
02/01:02pm 27.4 WNW 6 7 1015.1 - 0.0 - - - - - - -
02/12:32pm 27.4 WNW 5 6 1015.5 - 0.0 - - - - - - -
02/12:02pm 27.3 W 5 6 1015.9 - 0.0 - - - - - - -
02/12:00pm 26.9 W 5 - 1015.8 - - - - - - - - -
02/11:32am 27.6 WSW 5 6 1016.2 - 0.0 - - - - - - -
02/11:02am 27.2 WSW 5 6 1016.6 - 0.0 - - - - - - -
02/10:32am 27.0 WSW 6 7 1016.9 - 0.0 - - - - - - -
02/10:02am 26.9 WSW 7 8 1017.0 - 0.0 - - - - - - -
02/09:32am 26.7 WSW 5 6 1017.1 - 0.0 - - - - - - -
02/09:02am 26.8 SSW 5 6 1017.1 - 0.0 - - - - - - -
02/09:00am 26.6 SSW 5 - 1017.0 - 0.0 - - - - - - -
02/08:32am 26.4 S 5 6 1017.1 - 0.0 - - - - - - -
02/08:02am 26.5 SSE 4 6 1016.7 - 0.0 - - - - - - -
02/07:32am 25.3 SSE 4 4 1016.4 - 0.0 - - - - - - -
02/07:02am 24.2 S 4 5 1016.1 - 0.0 - - - - - - -
02/06:32am 22.8 S 4 4 1015.9 - 0.0 - - - - - - -
02/06:02am 22.6 SSW 4 5 1015.7 - 0.0 - - - - - - -
02/06:00am 22.7 SSW 4 - 1015.6 - - - - - - - - -
02/05:32am 23.0 SW 5 6 1015.4 - 0.0 - - - - - - -
02/05:02am 23.0 SW 6 6 1015.0 - 0.0 - - - - - - -
02/04:32am 23.2 WSW 5 6 1014.8 - 0.0 - - - - - - -
02/04:02am 23.3 SW 5 6 1014.8 - 0.0 - - - - - - -
02/03:32am 23.4 SW 6 6 1014.9 - 0.0 - - - - - - -
02/03:02am 23.5 SW 7 7 1014.9 - 0.0 - - - - - - -
02/03:00am 23.4 SW 6 - 1014.8 - 0.0 - - - - - - -
02/02:32am 23.3 WSW 6 7 1015.0 - 0.0 - - - - - - -
02/02:02am 23.1 WSW 5 6 1015.3 - 0.0 - - - - - - -
02/01:32am 23.4 SW 5 6 1015.4 - 0.0 - - - - - - -
02/01:02am 23.7 SSW 7 8 1015.7 - 0.0 - - - - - - -
02/12:32am 22.9 SSW 6 7 1015.8 - 0.0 - - - - - - -
02/12:02am 22.9 SSW 3 4 1015.7 - 0.0 - - - - - - -
02/12:00am 22.9 SSW 3 - 1015.7 - - - - - - - - -
 
Date/Time
WST
Temp

°C
Wind Pressure Rain
since 9am
mm
Weather Cloud Vis
km
Sea
Height
m
Swell
Dir
 
Speed
knots
Gust
knots
hPa Trend Height
m
Period
s
Dir
01/11:32pm 23.0 SSW 4 4 1015.9 - 0.0 - - - - - - -
01/11:02pm 22.9 S 4 4 1015.8 - 0.0 - - - - - - -
01/10:32pm 23.0 S 4 4 1015.9 - 0.0 - - - - - - -
01/10:02pm 22.7 S 4 4 1016.0 - 0.0 - - - - - - -

Other Formats:

Comma delimited format used in spreadsheet applications
http://www.bom.gov.au/fwo/IDW60701/IDW60701.94102.axf

JavaScript Object Notation format (JSON) in row-major order
http://www.bom.gov.au/fwo/IDW60701/IDW60701.94102.json